AEST,Max TemperatureF,Mean TemperatureF,Min TemperatureF,Max Dew PointF,MeanDew PointF,Min DewpointF,Max Humidity, Mean Humidity, Min Humidity, Max Sea Level PressureIn, Mean Sea Level PressureIn, Min Sea Level PressureIn, Max VisibilityMiles, Mean VisibilityMiles, Min VisibilityMiles, Max Wind SpeedMPH, Mean Wind SpeedMPH, Max Gust SpeedMPH,PrecipitationIn, CloudCover, Events, WindDirDegrees
2010-10-1,86,80,73,72,70,68,94,85,55,30.01,29.95,29.89,6,5,2,24,14,34,0.00,6,Rain,159
2010-10-2,78,76,73,73,72,70,100,90,78,30.01,29.98,29.92,6,5,1,25,13,,0.00,6,Rain,163
2010-10-3,84,78,73,75,73,70,100,90,70,30.04,29.97,29.92,6,5,2,22,12,,0.00,5,Rain,168
2010-10-4,86,80,75,73,72,70,94,81,62,29.98,29.93,29.86,6,6,2,20,12,,0.00,3,Rain,157
2010-10-5,86,80,73,72,70,66,89,73,51,29.95,29.91,29.83,6,6,6,18,12,,0.00,1,,155
2010-10-6,84,80,75,73,72,70,89,78,62,29.95,29.90,29.86,6,6,4,18,10,,0.00,5,Rain,159
2010-10-7,86,80,75,75,72,70,94,78,58,29.95,29.89,29.83,6,6,3,17,11,,0.00,4,Rain,162
2010-10-8,86,80,73,75,72,70,94,80,66,29.95,29.89,29.83,6,6,2,15,8,,0.00,5,Rain,152
2010-10-9,86,80,73,73,70,64,94,77,48,29.95,29.88,29.83,6,6,2,15,8,,0.00,5,Rain,154
2010-10-10,84,78,73,73,70,68,94,80,62,29.98,29.91,29.86,6,6,2,17,10,,0.00,6,Rain,161
2010-10-11,86,78,71,70,69,66,94,77,55,30.01,29.96,29.92,6,6,2,18,12,,0.00,6,Rain,162
2010-10-12,86,78,71,72,69,66,94,74,55,30.01,29.94,29.86,6,6,2,20,12,,0.00,3,Rain,158
2010-10-13,87,80,73,72,69,66,89,71,51,29.92,29.86,29.80,6,6,6,18,11,,0.00,2,,158
2010-10-14,80,76,73,77,73,70,100,91,83,29.86,29.81,29.74,6,4,1,13,7,,0.00,5,Rain,168
2010-10-15,84,76,69,75,73,70,100,84,66,29.83,29.77,29.71,6,6,2,14,5,,0.00,4,Fog-Rain,331
2010-10-16,80,74,69,75,70,64,100,82,58,29.92,29.82,29.74,6,6,2,17,7,,0.00,7,Rain,165
2010-10-17,82,76,69,68,60,55,88,61,42,29.98,29.91,29.83,6,6,6,20,9,,0.00,6,,152
2010-10-18,80,76,71,68,65,59,78,70,57,30.01,29.96,29.89,6,6,6,17,10,,0.00,6,Rain,164
2010-10-19,84,78,73,66,64,61,78,63,48,30.06,29.99,29.95,6,6,6,22,12,,0.00,5,,152
2010-10-20,86,80,73,73,68,63,94,71,51,30.04,29.97,29.92,6,6,3,25,14,,0.00,5,Rain,154
2010-10-21,78,74,69,73,70,66,94,90,74,30.04,29.96,29.89,6,4,2,25,14,37,0.00,7,Rain,168
2010-10-22,82,76,69,72,69,68,100,84,65,30.01,29.96,29.89,6,5,2,16,11,,0.00,6,Rain,167
2010-10-23,84,78,71,72,69,66,100,79,58,29.98,29.94,29.89,6,6,2,21,12,,0.00,5,Rain,151
2010-10-24,86,80,73,70,69,68,83,71,55,29.98,29.92,29.86,6,6,6,20,12,,0.00,2,,156
2010-10-25,86,78,69,70,67,63,88,70,45,29.98,29.92,29.86,6,6,6,15,10,,0.00,1,,146
2010-10-26,86,77,68,68,66,63,88,69,45,29.98,29.93,29.86,6,6,6,15,10,,0.00,1,,145
2010-10-27,86,78,69,68,67,64,88,70,48,29.95,29.88,29.83,6,6,6,18,10,,0.00,1,,144
2010-10-28,86,78,71,70,67,63,83,68,48,29.92,29.87,29.80,6,6,6,20,11,,0.00,6,,150
2010-10-29,87,80,73,70,66,59,83,66,38,29.95,29.90,29.86,6,6,6,20,12,,0.00,2,Rain,154
2010-10-30,86,78,69,68,66,63,88,67,48,29.95,29.89,29.83,6,6,6,17,10,,0.00,1,,149
2010-10-31,86,78,71,70,68,66,83,70,55,29.92,29.86,29.83,6,6,6,18,10,,0.00,2,Rain,151